Time,TemperatureF,DewpointF,PressureIn,WindDirection,WindDirectionDegrees,WindSpeedMPH,WindSpeedGustMPH,Humidity,HourlyPrecipIn,Conditions,Clouds,dailyrainin,SolarRadiationWatts/m^2,SoftwareType,DateUTC
2013-05-13 00:07:00,50.8,39.0,30.09,SSE,150,1.0,2.0,64,0.00,,,0.00,0,weatherlink.com 1.10,2013-05-13 05:07:00,
2013-05-13 00:22:00,51.5,39.0,30.09,SSE,150,2.0,3.0,63,0.00,,,0.00,0,weatherlink.com 1.10,2013-05-13 05:22:00,
2013-05-13 00:37:00,51.0,40.0,30.09,SSE,150,2.0,3.0,65,0.00,,,0.00,0,weatherlink.com 1.10,2013-05-13 05:37:00,
2013-05-13 00:52:00,50.8,40.0,30.09,SSE,159,2.0,4.0,67,0.00,,,0.00,0,weatherlink.com 1.10,2013-05-13 05:52:00,
2013-05-13 01:07:00,50.4,40.0,30.08,SSE,150,3.0,5.0,68,0.00,,,0.00,0,weatherlink.com 1.10,2013-05-13 06:07:00,
2013-05-13 01:22:00,50.6,40.0,30.08,SSE,159,3.0,5.0,68,0.00,,,0.00,0,weatherlink.com 1.10,2013-05-13 06:22:00,
2013-05-13 01:37:00,50.2,40.0,30.07,SSE,161,3.0,5.0,69,0.00,,,0.00,0,weatherlink.com 1.10,2013-05-13 06:37:00,
2013-05-13 01:52:00,50.5,41.0,30.07,SSE,161,5.0,5.0,71,0.00,,,0.00,0,weatherlink.com 1.10,2013-05-13 06:52:00,
2013-05-13 03:02:00,50.7,43.0,30.07,SSE,167,3.0,5.0,74,0.00,,,0.00,0,weatherlink.com 1.10,2013-05-13 08:02:00,
2013-05-13 03:08:00,50.7,43.0,30.07,SSE,167,2.0,4.0,74,0.00,,,0.00,0,weatherlink.com 1.10,2013-05-13 08:08:00,
2013-05-13 03:23:00,50.7,43.0,30.07,SSE,153,3.0,4.0,75,0.00,,,0.00,0,weatherlink.com 1.10,2013-05-13 08:23:00,
2013-05-13 03:38:00,50.6,43.0,30.06,SSE,149,3.0,7.0,75,0.00,,,0.00,0,weatherlink.com 1.10,2013-05-13 08:38:00,
2013-05-13 03:53:00,50.3,43.0,30.06,SSE,157,2.0,4.0,75,0.00,,,0.00,0,weatherlink.com 1.10,2013-05-13 08:53:00,
2013-05-13 04:08:00,50.0,43.0,30.05,South,183,6.0,7.0,76,0.00,,,0.00,0,weatherlink.com 1.10,2013-05-13 09:08:00,
2013-05-13 04:23:00,50.1,42.0,30.05,SSW,206,5.0,9.0,75,0.00,,,0.00,0,weatherlink.com 1.10,2013-05-13 09:23:00,
2013-05-13 04:38:00,49.5,42.0,30.05,SSW,207,5.0,7.0,76,0.00,,,0.00,0,weatherlink.com 1.10,2013-05-13 09:38:00,
2013-05-13 04:53:00,49.4,42.0,30.04,South,182,7.0,7.0,76,0.00,,,0.00,0,weatherlink.com 1.10,2013-05-13 09:53:00,
2013-05-13 05:08:00,49.2,42.0,30.03,South,170,5.0,8.0,77,0.00,,,0.00,0,weatherlink.com 1.10,2013-05-13 10:08:00,
2013-05-13 05:23:00,49.5,42.0,30.03,SSE,163,4.0,7.0,76,0.00,,,0.00,0,weatherlink.com 1.10,2013-05-13 10:23:00,
2013-05-13 05:38:00,49.7,42.0,30.03,South,189,6.0,7.0,76,0.00,,,0.00,0,weatherlink.com 1.10,2013-05-13 10:38:00,
2013-05-13 05:53:00,50.0,43.0,30.03,South,186,4.0,9.0,76,0.00,,,0.00,0,weatherlink.com 1.10,2013-05-13 10:53:00,
2013-05-13 06:08:00,49.6,43.0,30.03,South,184,5.0,9.0,77,0.00,,,0.00,0,weatherlink.com 1.10,2013-05-13 11:08:00,
2013-05-13 06:23:00,49.7,43.0,30.03,South,180,2.0,4.0,77,0.00,,,0.00,18,weatherlink.com 1.10,2013-05-13 11:23:00,
2013-05-13 06:38:00,50.3,43.0,30.04,South,185,4.0,8.0,77,0.00,,,0.00,30,weatherlink.com 1.10,2013-05-13 11:38:00,
2013-05-13 06:53:00,51.2,44.0,30.04,SSE,157,4.0,8.0,76,0.00,,,0.00,56,weatherlink.com 1.10,2013-05-13 11:53:00,
2013-05-13 07:08:00,52.5,44.0,30.04,South,182,5.0,8.0,73,0.00,,,0.00,67,weatherlink.com 1.10,2013-05-13 12:08:00,
2013-05-13 07:23:00,53.4,44.0,30.04,South,182,9.0,13.0,71,0.00,,,0.00,111,weatherlink.com 1.10,2013-05-13 12:23:00,
2013-05-13 07:39:00,54.1,45.0,30.04,South,175,6.0,14.0,70,0.00,,,0.00,185,weatherlink.com 1.10,2013-05-13 12:39:00,
2013-05-13 07:54:00,55.6,45.0,30.05,South,189,6.0,12.0,67,0.00,,,0.00,250,weatherlink.com 1.10,2013-05-13 12:54:00,
2013-05-13 08:09:00,56.8,45.0,30.05,South,188,10.0,17.0,64,0.00,,,0.00,274,weatherlink.com 1.10,2013-05-13 13:09:00,
2013-05-13 08:24:00,57.7,44.0,30.04,SSW,202,8.0,15.0,61,0.00,,,0.00,336,weatherlink.com 1.10,2013-05-13 13:24:00,
2013-05-13 08:39:00,58.6,45.0,30.04,South,176,7.0,16.0,60,0.00,,,0.00,366,weatherlink.com 1.10,2013-05-13 13:39:00,
2013-05-13 08:54:00,59.7,46.0,30.04,SSE,167,7.0,15.0,60,0.00,,,0.00,399,weatherlink.com 1.10,2013-05-13 13:54:00,
2013-05-13 09:09:00,60.5,45.0,30.03,South,184,14.0,16.0,58,0.00,,,0.00,473,weatherlink.com 1.10,2013-05-13 14:09:00,
2013-05-13 09:24:00,61.8,47.0,30.03,SSE,161,9.0,15.0,59,0.00,,,0.00,527,weatherlink.com 1.10,2013-05-13 14:24:00,
2013-05-13 09:39:00,63.0,47.0,30.02,SSW,193,7.0,14.0,57,0.00,,,0.00,557,weatherlink.com 1.10,2013-05-13 14:39:00,
2013-05-13 09:54:00,64.1,47.0,30.02,South,176,8.0,17.0,55,0.00,,,0.00,652,weatherlink.com 1.10,2013-05-13 14:54:00,
2013-05-13 10:09:00,64.9,48.0,30.01,SSE,163,6.0,16.0,55,0.00,,,0.00,629,weatherlink.com 1.10,2013-05-13 15:09:00,
2013-05-13 10:24:00,66.9,49.0,30.00,SSW,213,8.0,14.0,53,0.00,,,0.00,652,weatherlink.com 1.10,2013-05-13 15:24:00,
2013-05-13 10:39:00,68.2,49.0,30.00,SSE,167,4.0,13.0,51,0.00,,,0.00,756,weatherlink.com 1.10,2013-05-13 15:39:00,
2013-05-13 10:54:00,69.4,50.0,30.00,South,184,9.0,14.0,50,0.00,,,0.00,613,weatherlink.com 1.10,2013-05-13 15:54:00,
2013-05-13 11:09:00,71.2,52.0,29.99,South,181,8.0,17.0,51,0.00,,,0.00,821,weatherlink.com 1.10,2013-05-13 16:09:00,
2013-05-13 11:24:00,72.7,51.0,29.99,SSE,162,10.0,15.0,47,0.00,,,0.00,789,weatherlink.com 1.10,2013-05-13 16:24:00,
2013-05-13 11:40:00,73.4,50.0,29.98,South,174,10.0,15.0,44,0.00,,,0.00,687,weatherlink.com 1.10,2013-05-13 16:40:00,
2013-05-13 11:55:00,74.5,52.0,29.99,South,184,12.0,18.0,45,0.00,,,0.00,679,weatherlink.com 1.10,2013-05-13 16:55:00,
2013-05-13 12:10:00,76.2,51.0,29.98,SSW,197,11.0,17.0,41,0.00,,,0.00,749,weatherlink.com 1.10,2013-05-13 17:10:00,
2013-05-13 12:25:00,76.8,52.0,29.97,SSE,165,13.0,16.0,42,0.00,,,0.00,877,weatherlink.com 1.10,2013-05-13 17:25:00,
2013-05-13 12:40:00,77.8,51.0,29.96,South,189,8.0,16.0,39,0.00,,,0.00,884,weatherlink.com 1.10,2013-05-13 17:40:00,
2013-05-13 12:55:00,78.2,49.0,29.96,South,178,9.0,16.0,36,0.00,,,0.00,898,weatherlink.com 1.10,2013-05-13 17:55:00,
2013-05-13 13:10:00,79.5,51.0,29.95,South,179,14.0,19.0,37,0.00,,,0.00,893,weatherlink.com 1.10,2013-05-13 18:10:00,
2013-05-13 13:25:00,79.9,47.0,29.94,SSW,200,13.0,19.0,32,0.00,,,0.00,905,weatherlink.com 1.10,2013-05-13 18:25:00,
2013-05-13 13:40:00,81.0,48.0,29.93,South,171,15.0,21.0,31,0.00,,,0.00,881,weatherlink.com 1.10,2013-05-13 18:40:00,
2013-05-13 13:55:00,81.6,47.0,29.93,South,186,11.0,19.0,30,0.00,,,0.00,837,weatherlink.com 1.10,2013-05-13 18:55:00,
2013-05-13 14:10:00,82.1,46.0,29.92,SSE,167,8.0,20.0,28,0.00,,,0.00,802,weatherlink.com 1.10,2013-05-13 19:10:00,
2013-05-13 14:25:00,83.7,47.0,29.92,SW,228,12.0,19.0,28,0.00,,,0.00,865,weatherlink.com 1.10,2013-05-13 19:25:00,
2013-05-13 14:40:00,83.6,46.0,29.91,SW,223,18.0,20.0,27,0.00,,,0.00,865,weatherlink.com 1.10,2013-05-13 19:40:00,
2013-05-13 14:55:00,84.3,48.0,29.91,SSW,211,9.0,19.0,28,0.00,,,0.00,826,weatherlink.com 1.10,2013-05-13 19:55:00,
2013-05-13 15:10:00,84.5,47.0,29.90,SSW,202,13.0,19.0,27,0.00,,,0.00,691,weatherlink.com 1.10,2013-05-13 20:10:00,
2013-05-13 15:25:00,84.5,47.0,29.89,SSW,209,11.0,22.0,27,0.00,,,0.00,763,weatherlink.com 1.10,2013-05-13 20:25:00,
2013-05-13 15:40:00,84.4,47.0,29.89,SW,217,14.0,19.0,27,0.00,,,0.00,610,weatherlink.com 1.10,2013-05-13 20:40:00,
2013-05-13 15:55:00,85.2,48.0,29.88,SW,229,13.0,22.0,27,0.00,,,0.00,714,weatherlink.com 1.10,2013-05-13 20:55:00,
2013-05-13 16:10:00,85.3,48.0,29.88,SW,234,11.0,22.0,27,0.00,,,0.00,631,weatherlink.com 1.10,2013-05-13 21:10:00,
2013-05-13 16:25:00,85.6,48.0,29.87,WSW,243,11.0,24.0,27,0.00,,,0.00,647,weatherlink.com 1.10,2013-05-13 21:25:00,
2013-05-13 16:40:00,85.7,49.0,29.87,WSW,240,12.0,21.0,28,0.00,,,0.00,571,weatherlink.com 1.10,2013-05-13 21:40:00,
2013-05-13 16:55:00,85.0,50.0,29.86,SW,227,17.0,21.0,30,0.00,,,0.00,489,weatherlink.com 1.10,2013-05-13 21:55:00,
2013-05-13 17:10:00,84.9,51.0,29.85,SSW,207,11.0,25.0,31,0.00,,,0.00,515,weatherlink.com 1.10,2013-05-13 22:10:00,
2013-05-13 17:25:00,84.3,51.0,29.85,SSW,209,16.0,21.0,31,0.00,,,0.00,432,weatherlink.com 1.10,2013-05-13 22:25:00,
2013-05-13 17:41:00,84.1,51.0,29.84,SSW,212,7.0,24.0,32,0.00,,,0.00,295,weatherlink.com 1.10,2013-05-13 22:41:00,
2013-05-13 17:56:00,84.0,50.0,29.84,SW,229,16.0,22.0,31,0.00,,,0.00,316,weatherlink.com 1.10,2013-05-13 22:56:00,
2013-05-13 18:26:00,82.4,51.0,29.83,SSW,206,13.0,19.0,34,0.00,,,0.00,178,weatherlink.com 1.10,2013-05-13 23:26:00,
2013-05-13 18:41:00,81.9,52.0,29.83,SW,227,11.0,17.0,36,0.00,,,0.00,153,weatherlink.com 1.10,2013-05-13 23:41:00,
2013-05-13 18:56:00,81.0,53.0,29.83,SSW,211,10.0,16.0,38,0.00,,,0.00,97,weatherlink.com 1.10,2013-05-13 23:56:00,
2013-05-13 19:11:00,80.1,54.0,29.82,SSW,200,8.0,16.0,40,0.00,,,0.00,77,weatherlink.com 1.10,2013-05-14 00:11:00,
2013-05-13 19:26:00,79.4,54.0,29.82,SSW,198,6.0,14.0,42,0.00,,,0.00,67,weatherlink.com 1.10,2013-05-14 00:26:00,
2013-05-13 19:41:00,78.7,54.0,29.82,South,186,7.0,16.0,43,0.00,,,0.00,51,weatherlink.com 1.10,2013-05-14 00:41:00,
2013-05-13 19:56:00,77.8,55.0,29.82,SSW,209,3.0,12.0,45,0.00,,,0.00,33,weatherlink.com 1.10,2013-05-14 00:56:00,
2013-05-13 20:11:00,76.6,55.0,29.81,South,184,4.0,10.0,47,0.00,,,0.00,19,weatherlink.com 1.10,2013-05-14 01:11:00,
2013-05-13 20:25:00,75.8,55.0,29.81,South,177,6.0,12.0,48,0.00,,,0.00,7,weatherlink.com 1.10,2013-05-14 01:25:00,
2013-05-13 20:40:00,75.1,55.0,29.81,SSW,196,2.0,12.0,50,0.00,,,0.00,0,weatherlink.com 1.10,2013-05-14 01:40:00,
2013-05-13 20:56:00,73.9,55.0,29.82,SSW,213,3.0,8.0,52,0.00,,,0.00,0,weatherlink.com 1.10,2013-05-14 01:56:00,
2013-05-13 21:11:00,73.5,56.0,29.81,SSW,204,4.0,10.0,54,0.00,,,0.00,0,weatherlink.com 1.10,2013-05-14 02:11:00,
2013-05-13 21:26:00,72.8,56.0,29.82,SW,221,6.0,8.0,55,0.00,,,0.00,0,weatherlink.com 1.10,2013-05-14 02:26:00,
2013-05-13 21:40:00,72.3,56.0,29.82,SSW,193,5.0,7.0,56,0.00,,,0.00,0,weatherlink.com 1.10,2013-05-14 02:40:00,
2013-05-13 21:55:00,71.6,55.0,29.81,South,182,2.0,9.0,57,0.00,,,0.00,0,weatherlink.com 1.10,2013-05-14 02:55:00,
2013-05-13 22:10:00,70.9,55.0,29.82,SSW,211,4.0,8.0,58,0.00,,,0.00,0,weatherlink.com 1.10,2013-05-14 03:10:00,
2013-05-13 22:26:00,69.5,55.0,29.82,SSW,209,3.0,8.0,61,0.00,,,0.00,0,weatherlink.com 1.10,2013-05-14 03:26:00,
2013-05-13 22:41:00,69.2,55.0,29.82,SSW,204,3.0,6.0,62,0.00,,,0.00,0,weatherlink.com 1.10,2013-05-14 03:41:00,
2013-05-13 22:56:00,68.2,55.0,29.82,SSW,209,3.0,6.0,64,0.00,,,0.00,0,weatherlink.com 1.10,2013-05-14 03:56:00,
2013-05-13 23:11:00,67.8,56.0,29.81,South,188,1.0,5.0,65,0.00,,,0.00,0,weatherlink.com 1.10,2013-05-14 04:11:00,
2013-05-13 23:26:00,67.7,56.0,29.81,SW,219,3.0,5.0,66,0.00,,,0.00,0,weatherlink.com 1.10,2013-05-14 04:26:00,
2013-05-13 23:41:00,67.4,56.0,29.81,SSW,209,0.0,9.0,67,0.00,,,0.00,0,weatherlink.com 1.10,2013-05-14 04:41:00,
2013-05-13 23:55:00,67.0,56.0,29.81,SSW,203,2.0,6.0,68,0.00,,,0.00,0,weatherlink.com 1.10,2013-05-14 04:55:00,